sensor_id;sensor_type;location;lat;lon;timestamp;P1;durP1;ratioP1;P2;durP2;ratioP2
5981;SDS011;3018;48.730;9.336;2024-03-08T00:01:31;23.65;;;16.80;;
5981;SDS011;3018;48.730;9.336;2024-03-08T00:03:59;27.58;;;17.40;;
5981;SDS011;3018;48.730;9.336;2024-03-08T00:06:25;26.23;;;17.55;;
5981;SDS011;3018;48.730;9.336;2024-03-08T00:08:51;27.33;;;17.88;;
5981;SDS011;3018;48.730;9.336;2024-03-08T00:11:17;27.25;;;18.05;;
5981;SDS011;3018;48.730;9.336;2024-03-08T00:13:43;30.00;;;18.25;;
5981;SDS011;3018;48.730;9.336;2024-03-08T00:16:10;30.50;;;18.60;;
5981;SDS011;3018;48.730;9.336;2024-03-08T00:18:36;30.95;;;19.40;;
5981;SDS011;3018;48.730;9.336;2024-03-08T00:21:04;27.42;;;18.15;;
5981;SDS011;3018;48.730;9.336;2024-03-08T00:23:30;24.77;;;17.40;;
5981;SDS011;3018;48.730;9.336;2024-03-08T00:25:58;27.90;;;17.67;;
5981;SDS011;3018;48.730;9.336;2024-03-08T00:28:24;27.25;;;17.83;;
5981;SDS011;3018;48.730;9.336;2024-03-08T00:30:52;25.17;;;17.33;;
5981;SDS011;3018;48.730;9.336;2024-03-08T00:33:18;24.77;;;16.83;;
5981;SDS011;3018;48.730;9.336;2024-03-08T00:35:44;24.88;;;16.65;;
5981;SDS011;3018;48.730;9.336;2024-03-08T00:38:12;29.00;;;17.33;;
5981;SDS011;3018;48.730;9.336;2024-03-08T00:40:39;26.95;;;17.38;;
5981;SDS011;3018;48.730;9.336;2024-03-08T00:43:05;24.45;;;16.77;;
5981;SDS011;3018;48.730;9.336;2024-03-08T00:45:32;26.92;;;18.40;;
5981;SDS011;3018;48.730;9.336;2024-03-08T00:47:58;25.05;;;17.02;;
5981;SDS011;3018;48.730;9.336;2024-03-08T00:50:24;22.50;;;16.63;;
5981;SDS011;3018;48.730;9.336;2024-03-08T00:52:50;25.52;;;16.83;;
5981;SDS011;3018;48.730;9.336;2024-03-08T00:55:18;22.95;;;16.13;;
5981;SDS011;3018;48.730;9.336;2024-03-08T00:57:44;23.90;;;17.55;;
5981;SDS011;3018;48.730;9.336;2024-03-08T01:00:11;22.67;;;16.08;;
5981;SDS011;3018;48.730;9.336;2024-03-08T01:02:38;24.33;;;16.92;;
5981;SDS011;3018;48.730;9.336;2024-03-08T01:05:04;23.90;;;17.25;;
5981;SDS011;3018;48.730;9.336;2024-03-08T01:07:32;25.83;;;17.15;;
5981;SDS011;3018;48.730;9.336;2024-03-08T01:09:58;22.27;;;15.88;;
5981;SDS011;3018;48.730;9.336;2024-03-08T01:12:27;25.20;;;16.50;;
5981;SDS011;3018;48.730;9.336;2024-03-08T01:14:53;25.63;;;16.27;;
5981;SDS011;3018;48.730;9.336;2024-03-08T01:17:19;23.88;;;16.70;;
5981;SDS011;3018;48.730;9.336;2024-03-08T01:19:45;22.70;;;15.95;;
5981;SDS011;3018;48.730;9.336;2024-03-08T01:22:12;24.08;;;16.70;;
5981;SDS011;3018;48.730;9.336;2024-03-08T01:24:38;22.60;;;16.17;;
5981;SDS011;3018;48.730;9.336;2024-03-08T01:27:04;23.25;;;16.02;;
5981;SDS011;3018;48.730;9.336;2024-03-08T01:29:32;23.52;;;16.38;;
5981;SDS011;3018;48.730;9.336;2024-03-08T01:31:58;24.30;;;16.60;;
5981;SDS011;3018;48.730;9.336;2024-03-08T01:34:26;21.65;;;15.40;;
5981;SDS011;3018;48.730;9.336;2024-03-08T01:36:53;25.17;;;17.52;;
5981;SDS011;3018;48.730;9.336;2024-03-08T01:39:20;22.52;;;16.20;;
5981;SDS011;3018;48.730;9.336;2024-03-08T01:41:47;22.85;;;16.27;;
5981;SDS011;3018;48.730;9.336;2024-03-08T01:44:13;23.30;;;17.00;;
5981;SDS011;3018;48.730;9.336;2024-03-08T01:46:43;25.08;;;16.58;;
5981;SDS011;3018;48.730;9.336;2024-03-08T01:49:10;22.77;;;16.17;;
5981;SDS011;3018;48.730;9.336;2024-03-08T01:51:37;22.48;;;15.98;;
5981;SDS011;3018;48.730;9.336;2024-03-08T01:54:05;22.25;;;15.80;;
5981;SDS011;3018;48.730;9.336;2024-03-08T01:56:31;21.40;;;16.13;;
5981;SDS011;3018;48.730;9.336;2024-03-08T01:58:57;22.40;;;15.32;;
5981;SDS011;3018;48.730;9.336;2024-03-08T02:01:24;23.95;;;16.75;;
5981;SDS011;3018;48.730;9.336;2024-03-08T02:03:52;22.95;;;16.02;;
5981;SDS011;3018;48.730;9.336;2024-03-08T02:06:18;21.80;;;15.27;;
5981;SDS011;3018;48.730;9.336;2024-03-08T02:08:45;21.55;;;15.15;;
5981;SDS011;3018;48.730;9.336;2024-03-08T02:11:11;21.35;;;15.63;;
5981;SDS011;3018;48.730;9.336;2024-03-08T02:13:38;21.73;;;15.65;;
5981;SDS011;3018;48.730;9.336;2024-03-08T02:16:04;22.92;;;15.80;;
5981;SDS011;3018;48.730;9.336;2024-03-08T02:18:33;24.15;;;15.15;;
5981;SDS011;3018;48.730;9.336;2024-03-08T02:21:01;23.50;;;15.55;;
5981;SDS011;3018;48.730;9.336;2024-03-08T02:23:27;22.15;;;15.55;;
5981;SDS011;3018;48.730;9.336;2024-03-08T02:25:54;23.80;;;15.20;;
5981;SDS011;3018;48.730;9.336;2024-03-08T02:28:21;22.92;;;16.25;;
5981;SDS011;3018;48.730;9.336;2024-03-08T02:30:48;20.75;;;14.48;;
5981;SDS011;3018;48.730;9.336;2024-03-08T02:33:15;21.17;;;14.82;;
5981;SDS011;3018;48.730;9.336;2024-03-08T02:35:42;23.20;;;15.77;;
5981;SDS011;3018;48.730;9.336;2024-03-08T02:38:12;22.10;;;15.48;;
5981;SDS011;3018;48.730;9.336;2024-03-08T02:40:38;21.25;;;14.82;;
5981;SDS011;3018;48.730;9.336;2024-03-08T02:43:04;19.25;;;13.68;;
5981;SDS011;3018;48.730;9.336;2024-03-08T02:45:30;22.48;;;14.55;;
5981;SDS011;3018;48.730;9.336;2024-03-08T02:47:57;21.15;;;14.93;;
5981;SDS011;3018;48.730;9.336;2024-03-08T02:50:23;23.08;;;15.02;;
5981;SDS011;3018;48.730;9.336;2024-03-08T02:52:50;22.10;;;16.27;;
5981;SDS011;3018;48.730;9.336;2024-03-08T02:55:18;23.45;;;16.73;;
5981;SDS011;3018;48.730;9.336;2024-03-08T02:57:45;22.77;;;15.45;;
5981;SDS011;3018;48.730;9.336;2024-03-08T03:00:12;22.83;;;14.85;;
5981;SDS011;3018;48.730;9.336;2024-03-08T03:02:39;24.02;;;16.92;;
5981;SDS011;3018;48.730;9.336;2024-03-08T03:05:05;23.13;;;16.35;;
5981;SDS011;3018;48.730;9.336;2024-03-08T03:07:32;22.63;;;15.55;;
5981;SDS011;3018;48.730;9.336;2024-03-08T03:09:58;26.73;;;15.35;;
5981;SDS011;3018;48.730;9.336;2024-03-08T03:12:26;25.08;;;16.70;;
5981;SDS011;3018;48.730;9.336;2024-03-08T03:14:52;24.10;;;16.42;;
5981;SDS011;3018;48.730;9.336;2024-03-08T03:17:19;24.70;;;16.13;;
5981;SDS011;3018;48.730;9.336;2024-03-08T03:19:45;27.67;;;16.20;;
5981;SDS011;3018;48.730;9.336;2024-03-08T03:22:12;22.17;;;15.93;;
5981;SDS011;3018;48.730;9.336;2024-03-08T03:24:38;24.05;;;15.52;;
5981;SDS011;3018;48.730;9.336;2024-03-08T03:27:05;21.55;;;16.13;;
5981;SDS011;3018;48.730;9.336;2024-03-08T03:29:37;22.42;;;15.90;;
5981;SDS011;3018;48.730;9.336;2024-03-08T03:32:03;22.63;;;16.13;;
5981;SDS011;3018;48.730;9.336;2024-03-08T03:34:29;21.92;;;15.68;;
5981;SDS011;3018;48.730;9.336;2024-03-08T03:36:56;22.67;;;15.55;;
5981;SDS011;3018;48.730;9.336;2024-03-08T03:39:22;21.10;;;15.57;;
5981;SDS011;3018;48.730;9.336;2024-03-08T03:41:49;23.08;;;16.08;;
5981;SDS011;3018;48.730;9.336;2024-03-08T03:44:17;25.75;;;16.90;;
5981;SDS011;3018;48.730;9.336;2024-03-08T03:46:44;22.63;;;16.13;;
5981;SDS011;3018;48.730;9.336;2024-03-08T03:49:11;23.05;;;15.85;;
5981;SDS011;3018;48.730;9.336;2024-03-08T03:51:37;23.90;;;15.85;;
5981;SDS011;3018;48.730;9.336;2024-03-08T03:54:04;22.17;;;15.40;;
5981;SDS011;3018;48.730;9.336;2024-03-08T03:56:30;21.70;;;15.82;;
5981;SDS011;3018;48.730;9.336;2024-03-08T03:58:56;23.75;;;15.35;;
5981;SDS011;3018;48.730;9.336;2024-03-08T04:01:22;22.63;;;16.17;;
5981;SDS011;3018;48.730;9.336;2024-03-08T04:03:50;21.85;;;15.65;;
5981;SDS011;3018;48.730;9.336;2024-03-08T04:06:16;23.88;;;16.92;;
5981;SDS011;3018;48.730;9.336;2024-03-08T04:08:43;22.58;;;16.05;;
5981;SDS011;3018;48.730;9.336;2024-03-08T04:11:09;23.48;;;16.23;;
5981;SDS011;3018;48.730;9.336;2024-03-08T04:13:35;23.02;;;17.02;;
5981;SDS011;3018;48.730;9.336;2024-03-08T04:16:02;25.08;;;17.30;;
5981;SDS011;3018;48.730;9.336;2024-03-08T04:18:32;26.58;;;16.48;;
5981;SDS011;3018;48.730;9.336;2024-03-08T04:21:02;23.42;;;17.42;;
5981;SDS011;3018;48.730;9.336;2024-03-08T04:23:28;28.58;;;18.08;;
5981;SDS011;3018;48.730;9.336;2024-03-08T04:25:54;26.77;;;17.63;;
5981;SDS011;3018;48.730;9.336;2024-03-08T04:28:20;25.50;;;17.50;;
5981;SDS011;3018;48.730;9.336;2024-03-08T04:30:47;25.40;;;16.67;;
5981;SDS011;3018;48.730;9.336;2024-03-08T04:33:13;23.40;;;17.45;;
5981;SDS011;3018;48.730;9.336;2024-03-08T04:35:39;25.27;;;17.02;;
5981;SDS011;3018;48.730;9.336;2024-03-08T04:38:07;24.98;;;16.63;;
5981;SDS011;3018;48.730;9.336;2024-03-08T04:40:33;27.35;;;17.75;;
5981;SDS011;3018;48.730;9.336;2024-03-08T04:43:00;30.10;;;17.95;;
5981;SDS011;3018;48.730;9.336;2024-03-08T04:45:26;25.13;;;17.25;;
5981;SDS011;3018;48.730;9.336;2024-03-08T04:47:53;26.73;;;16.95;;
5981;SDS011;3018;48.730;9.336;2024-03-08T04:50:19;24.30;;;16.90;;
5981;SDS011;3018;48.730;9.336;2024-03-08T04:52:45;22.60;;;17.55;;
5981;SDS011;3018;48.730;9.336;2024-03-08T04:55:14;27.63;;;18.90;;
5981;SDS011;3018;48.730;9.336;2024-03-08T04:57:40;24.55;;;18.05;;
5981;SDS011;3018;48.730;9.336;2024-03-08T05:00:07;23.95;;;17.30;;
5981;SDS011;3018;48.730;9.336;2024-03-08T05:02:36;24.65;;;17.17;;
5981;SDS011;3018;48.730;9.336;2024-03-08T05:05:03;24.88;;;17.05;;
5981;SDS011;3018;48.730;9.336;2024-03-08T05:07:31;25.58;;;17.95;;
5981;SDS011;3018;48.730;9.336;2024-03-08T05:09:57;25.38;;;18.05;;
5981;SDS011;3018;48.730;9.336;2024-03-08T05:12:25;24.17;;;17.27;;
5981;SDS011;3018;48.730;9.336;2024-03-08T05:14:51;27.02;;;18.23;;
5981;SDS011;3018;48.730;9.336;2024-03-08T05:17:18;26.33;;;17.75;;
5981;SDS011;3018;48.730;9.336;2024-03-08T05:19:45;24.48;;;17.17;;
5981;SDS011;3018;48.730;9.336;2024-03-08T05:22:11;27.77;;;18.17;;
5981;SDS011;3018;48.730;9.336;2024-03-08T05:24:38;25.17;;;17.92;;
5981;SDS011;3018;48.730;9.336;2024-03-08T05:27:04;24.70;;;18.10;;
5981;SDS011;3018;48.730;9.336;2024-03-08T05:29:32;25.35;;;17.73;;
5981;SDS011;3018;48.730;9.336;2024-03-08T05:31:59;24.70;;;17.48;;
5981;SDS011;3018;48.730;9.336;2024-03-08T05:34:25;27.30;;;18.80;;
5981;SDS011;3018;48.730;9.336;2024-03-08T05:36:53;27.05;;;17.48;;
5981;SDS011;3018;48.730;9.336;2024-03-08T05:39:19;26.33;;;18.80;;
5981;SDS011;3018;48.730;9.336;2024-03-08T05:41:46;30.02;;;18.40;;
5981;SDS011;3018;48.730;9.336;2024-03-08T05:44:13;25.40;;;18.02;;
5981;SDS011;3018;48.730;9.336;2024-03-08T05:46:40;28.13;;;18.90;;
5981;SDS011;3018;48.730;9.336;2024-03-08T05:49:08;23.20;;;17.52;;
5981;SDS011;3018;48.730;9.336;2024-03-08T05:51:36;25.95;;;17.30;;
5981;SDS011;3018;48.730;9.336;2024-03-08T05:54:04;28.35;;;18.90;;
5981;SDS011;3018;48.730;9.336;2024-03-08T05:56:31;24.02;;;16.83;;
5981;SDS011;3018;48.730;9.336;2024-03-08T05:58:57;25.83;;;18.67;;
5981;SDS011;3018;48.730;9.336;2024-03-08T06:01:24;28.17;;;17.83;;
5981;SDS011;3018;48.730;9.336;2024-03-08T06:03:52;23.05;;;17.13;;
5981;SDS011;3018;48.730;9.336;2024-03-08T06:06:20;26.52;;;18.08;;
5981;SDS011;3018;48.730;9.336;2024-03-08T06:08:47;31.02;;;18.92;;
5981;SDS011;3018;48.730;9.336;2024-03-08T06:11:14;25.80;;;17.38;;
5981;SDS011;3018;48.730;9.336;2024-03-08T06:13:42;24.55;;;18.27;;
5981;SDS011;3018;48.730;9.336;2024-03-08T06:16:08;27.70;;;18.48;;
5981;SDS011;3018;48.730;9.336;2024-03-08T06:18:34;27.70;;;18.27;;
5981;SDS011;3018;48.730;9.336;2024-03-08T06:21:03;27.40;;;18.27;;
5981;SDS011;3018;48.730;9.336;2024-03-08T06:23:30;24.67;;;17.40;;
5981;SDS011;3018;48.730;9.336;2024-03-08T06:25:56;25.77;;;18.15;;
5981;SDS011;3018;48.730;9.336;2024-03-08T06:28:23;30.50;;;19.65;;
5981;SDS011;3018;48.730;9.336;2024-03-08T06:30:49;28.70;;;19.67;;
5981;SDS011;3018;48.730;9.336;2024-03-08T06:33:16;26.55;;;18.25;;
5981;SDS011;3018;48.730;9.336;2024-03-08T06:35:42;30.30;;;18.88;;
5981;SDS011;3018;48.730;9.336;2024-03-08T06:38:10;28.60;;;19.40;;
5981;SDS011;3018;48.730;9.336;2024-03-08T06:40:37;30.80;;;18.67;;
5981;SDS011;3018;48.730;9.336;2024-03-08T06:43:05;29.92;;;19.20;;
5981;SDS011;3018;48.730;9.336;2024-03-08T06:45:31;30.60;;;18.92;;
5981;SDS011;3018;48.730;9.336;2024-03-08T06:47:57;29.23;;;18.58;;
5981;SDS011;3018;48.730;9.336;2024-03-08T06:50:24;30.80;;;19.75;;
5981;SDS011;3018;48.730;9.336;2024-03-08T06:52:50;29.60;;;19.52;;
5981;SDS011;3018;48.730;9.336;2024-03-08T06:55:20;25.83;;;18.83;;
5981;SDS011;3018;48.730;9.336;2024-03-08T06:57:46;26.33;;;18.70;;
5981;SDS011;3018;48.730;9.336;2024-03-08T07:00:12;28.30;;;18.30;;
5981;SDS011;3018;48.730;9.336;2024-03-08T07:02:43;25.13;;;17.48;;
5981;SDS011;3018;48.730;9.336;2024-03-08T07:05:10;27.55;;;18.60;;
5981;SDS011;3018;48.730;9.336;2024-03-08T07:07:37;27.50;;;19.52;;
5981;SDS011;3018;48.730;9.336;2024-03-08T07:10:03;25.15;;;18.70;;
5981;SDS011;3018;48.730;9.336;2024-03-08T07:12:31;29.38;;;18.70;;
5981;SDS011;3018;48.730;9.336;2024-03-08T07:14:58;28.23;;;18.73;;
5981;SDS011;3018;48.730;9.336;2024-03-08T07:17:24;27.95;;;18.08;;
5981;SDS011;3018;48.730;9.336;2024-03-08T07:19:51;27.85;;;18.10;;
5981;SDS011;3018;48.730;9.336;2024-03-08T07:22:19;27.55;;;18.15;;
5981;SDS011;3018;48.730;9.336;2024-03-08T07:24:45;29.67;;;18.92;;
5981;SDS011;3018;48.730;9.336;2024-03-08T07:27:29;27.38;;;19.08;;
5981;SDS011;3018;48.730;9.336;2024-03-08T07:29:57;27.85;;;18.35;;
5981;SDS011;3018;48.730;9.336;2024-03-08T07:32:23;29.23;;;18.45;;
5981;SDS011;3018;48.730;9.336;2024-03-08T07:34:50;24.65;;;18.67;;
5981;SDS011;3018;48.730;9.336;2024-03-08T07:37:16;25.67;;;17.85;;
5981;SDS011;3018;48.730;9.336;2024-03-08T07:39:44;27.90;;;18.70;;
5981;SDS011;3018;48.730;9.336;2024-03-08T07:42:10;26.38;;;18.00;;
5981;SDS011;3018;48.730;9.336;2024-03-08T07:44:37;29.17;;;18.90;;
5981;SDS011;3018;48.730;9.336;2024-03-08T07:47:04;24.88;;;18.08;;
5981;SDS011;3018;48.730;9.336;2024-03-08T07:49:34;27.88;;;18.98;;
5981;SDS011;3018;48.730;9.336;2024-03-08T07:52:00;25.30;;;18.50;;
5981;SDS011;3018;48.730;9.336;2024-03-08T07:54:26;26.65;;;18.52;;
5981;SDS011;3018;48.730;9.336;2024-03-08T07:56:53;26.45;;;18.67;;
5981;SDS011;3018;48.730;9.336;2024-03-08T07:59:19;25.45;;;18.73;;
5981;SDS011;3018;48.730;9.336;2024-03-08T08:01:46;27.27;;;17.67;;
5981;SDS011;3018;48.730;9.336;2024-03-08T08:04:13;26.52;;;18.20;;
5981;SDS011;3018;48.730;9.336;2024-03-08T08:06:43;26.65;;;18.15;;
5981;SDS011;3018;48.730;9.336;2024-03-08T08:09:09;28.27;;;18.83;;
5981;SDS011;3018;48.730;9.336;2024-03-08T08:11:39;27.40;;;18.92;;
5981;SDS011;3018;48.730;9.336;2024-03-08T08:14:08;28.42;;;18.00;;
5981;SDS011;3018;48.730;9.336;2024-03-08T08:16:34;27.20;;;18.98;;
5981;SDS011;3018;48.730;9.336;2024-03-08T08:19:01;27.55;;;18.48;;
5981;SDS011;3018;48.730;9.336;2024-03-08T08:21:30;28.73;;;18.30;;
5981;SDS011;3018;48.730;9.336;2024-03-08T08:23:56;30.33;;;18.33;;
5981;SDS011;3018;48.730;9.336;2024-03-08T08:26:22;26.73;;;18.00;;
5981;SDS011;3018;48.730;9.336;2024-03-08T08:28:51;31.33;;;18.40;;
5981;SDS011;3018;48.730;9.336;2024-03-08T08:31:18;23.98;;;17.58;;
5981;SDS011;3018;48.730;9.336;2024-03-08T08:33:44;27.15;;;18.45;;
5981;SDS011;3018;48.730;9.336;2024-03-08T08:36:13;27.33;;;17.73;;
5981;SDS011;3018;48.730;9.336;2024-03-08T08:38:40;23.85;;;17.02;;
5981;SDS011;3018;48.730;9.336;2024-03-08T08:41:08;24.52;;;18.10;;
5981;SDS011;3018;48.730;9.336;2024-03-08T08:43:36;28.90;;;17.88;;
5981;SDS011;3018;48.730;9.336;2024-03-08T08:46:04;28.15;;;19.08;;
5981;SDS011;3018;48.730;9.336;2024-03-08T08:48:30;25.13;;;18.02;;
5981;SDS011;3018;48.730;9.336;2024-03-08T08:50:57;27.83;;;18.13;;
5981;SDS011;3018;48.730;9.336;2024-03-08T08:53:23;28.58;;;18.65;;
5981;SDS011;3018;48.730;9.336;2024-03-08T08:55:50;25.75;;;17.65;;
5981;SDS011;3018;48.730;9.336;2024-03-08T08:58:18;23.23;;;17.25;;
5981;SDS011;3018;48.730;9.336;2024-03-08T09:00:44;25.50;;;17.27;;
5981;SDS011;3018;48.730;9.336;2024-03-08T09:03:10;24.45;;;16.98;;
5981;SDS011;3018;48.730;9.336;2024-03-08T09:05:37;24.80;;;17.23;;
5981;SDS011;3018;48.730;9.336;2024-03-08T09:08:03;28.45;;;18.13;;
5981;SDS011;3018;48.730;9.336;2024-03-08T09:10:30;28.63;;;18.70;;
5981;SDS011;3018;48.730;9.336;2024-03-08T09:12:57;26.70;;;18.20;;
5981;SDS011;3018;48.730;9.336;2024-03-08T09:15:24;24.08;;;17.65;;
5981;SDS011;3018;48.730;9.336;2024-03-08T09:17:53;24.80;;;17.27;;
5981;SDS011;3018;48.730;9.336;2024-03-08T09:20:19;26.85;;;16.45;;
5981;SDS011;3018;48.730;9.336;2024-03-08T09:22:46;27.25;;;17.50;;
5981;SDS011;3018;48.730;9.336;2024-03-08T09:25:12;24.75;;;17.58;;
5981;SDS011;3018;48.730;9.336;2024-03-08T09:27:38;25.13;;;17.30;;
5981;SDS011;3018;48.730;9.336;2024-03-08T09:30:07;23.15;;;16.38;;
5981;SDS011;3018;48.730;9.336;2024-03-08T09:32:34;25.27;;;16.73;;
5981;SDS011;3018;48.730;9.336;2024-03-08T09:35:01;24.27;;;17.13;;
5981;SDS011;3018;48.730;9.336;2024-03-08T09:37:28;23.15;;;16.25;;
5981;SDS011;3018;48.730;9.336;2024-03-08T09:39:54;21.00;;;15.80;;
5981;SDS011;3018;48.730;9.336;2024-03-08T09:42:20;20.75;;;15.77;;
5981;SDS011;3018;48.730;9.336;2024-03-08T09:44:46;26.23;;;16.15;;
5981;SDS011;3018;48.730;9.336;2024-03-08T09:47:14;22.70;;;15.73;;
5981;SDS011;3018;48.730;9.336;2024-03-08T09:49:41;22.00;;;15.68;;
5981;SDS011;3018;48.730;9.336;2024-03-08T09:52:08;22.13;;;16.40;;
5981;SDS011;3018;48.730;9.336;2024-03-08T09:54:35;25.05;;;15.77;;
5981;SDS011;3018;48.730;9.336;2024-03-08T09:57:01;25.17;;;17.08;;
5981;SDS011;3018;48.730;9.336;2024-03-08T09:59:29;22.85;;;16.33;;
5981;SDS011;3018;48.730;9.336;2024-03-08T10:02:13;23.90;;;15.75;;
5981;SDS011;3018;48.730;9.336;2024-03-08T10:04:42;21.58;;;15.63;;
5981;SDS011;3018;48.730;9.336;2024-03-08T10:07:08;20.65;;;14.95;;
5981;SDS011;3018;48.730;9.336;2024-03-08T10:09:34;19.88;;;14.82;;
5981;SDS011;3018;48.730;9.336;2024-03-08T10:12:00;20.63;;;15.43;;
5981;SDS011;3018;48.730;9.336;2024-03-08T10:14:27;22.42;;;15.95;;
5981;SDS011;3018;48.730;9.336;2024-03-08T10:16:54;21.77;;;16.02;;
5981;SDS011;3018;48.730;9.336;2024-03-08T10:19:24;24.00;;;16.50;;
5981;SDS011;3018;48.730;9.336;2024-03-08T10:21:52;21.88;;;16.13;;
5981;SDS011;3018;48.730;9.336;2024-03-08T10:24:19;23.50;;;15.48;;
5981;SDS011;3018;48.730;9.336;2024-03-08T10:26:45;24.02;;;15.85;;
5981;SDS011;3018;48.730;9.336;2024-03-08T10:29:13;25.08;;;15.25;;
5981;SDS011;3018;48.730;9.336;2024-03-08T10:31:42;23.30;;;16.60;;
5981;SDS011;3018;48.730;9.336;2024-03-08T10:34:09;22.88;;;15.60;;
5981;SDS011;3018;48.730;9.336;2024-03-08T10:36:35;23.58;;;16.27;;
5981;SDS011;3018;48.730;9.336;2024-03-08T10:39:04;21.95;;;15.45;;
5981;SDS011;3018;48.730;9.336;2024-03-08T10:41:36;23.35;;;16.60;;
5981;SDS011;3018;48.730;9.336;2024-03-08T10:44:08;20.38;;;15.23;;
5981;SDS011;3018;48.730;9.336;2024-03-08T10:46:39;23.80;;;15.27;;
5981;SDS011;3018;48.730;9.336;2024-03-08T10:49:11;20.67;;;15.05;;
5981;SDS011;3018;48.730;9.336;2024-03-08T10:51:38;21.42;;;15.77;;
5981;SDS011;3018;48.730;9.336;2024-03-08T10:54:07;28.50;;;16.20;;
5981;SDS011;3018;48.730;9.336;2024-03-08T10:56:35;22.98;;;16.40;;
5981;SDS011;3018;48.730;9.336;2024-03-08T10:59:03;22.30;;;15.43;;
5981;SDS011;3018;48.730;9.336;2024-03-08T11:01:30;22.38;;;16.13;;
5981;SDS011;3018;48.730;9.336;2024-03-08T11:03:56;22.85;;;15.52;;
5981;SDS011;3018;48.730;9.336;2024-03-08T11:06:29;22.67;;;15.25;;
5981;SDS011;3018;48.730;9.336;2024-03-08T11:08:56;20.02;;;15.10;;
5981;SDS011;3018;48.730;9.336;2024-03-08T11:11:25;22.30;;;15.63;;
5981;SDS011;3018;48.730;9.336;2024-03-08T11:13:56;24.20;;;16.50;;
5981;SDS011;3018;48.730;9.336;2024-03-08T11:16:38;22.05;;;15.65;;
5981;SDS011;3018;48.730;9.336;2024-03-08T11:19:22;23.48;;;16.27;;
5981;SDS011;3018;48.730;9.336;2024-03-08T11:21:56;21.33;;;16.02;;
5981;SDS011;3018;48.730;9.336;2024-03-08T11:24:23;23.17;;;16.08;;
5981;SDS011;3018;48.730;9.336;2024-03-08T11:26:52;25.35;;;15.43;;
5981;SDS011;3018;48.730;9.336;2024-03-08T11:29:33;24.90;;;17.17;;
5981;SDS011;3018;48.730;9.336;2024-03-08T11:32:04;25.15;;;17.33;;
5981;SDS011;3018;48.730;9.336;2024-03-08T11:34:31;24.25;;;16.40;;
5981;SDS011;3018;48.730;9.336;2024-03-08T11:36:58;25.83;;;16.80;;
5981;SDS011;3018;48.730;9.336;2024-03-08T11:39:24;23.70;;;16.65;;
5981;SDS011;3018;48.730;9.336;2024-03-08T11:41:52;23.75;;;16.52;;
5981;SDS011;3018;48.730;9.336;2024-03-08T11:44:19;22.60;;;16.67;;
5981;SDS011;3018;48.730;9.336;2024-03-08T11:46:45;28.02;;;17.10;;
5981;SDS011;3018;48.730;9.336;2024-03-08T11:49:12;25.67;;;17.42;;
5981;SDS011;3018;48.730;9.336;2024-03-08T11:51:39;24.27;;;17.42;;
5981;SDS011;3018;48.730;9.336;2024-03-08T11:54:06;24.42;;;16.00;;
5981;SDS011;3018;48.730;9.336;2024-03-08T11:56:32;21.80;;;16.48;;
5981;SDS011;3018;48.730;9.336;2024-03-08T11:59:00;29.77;;;17.10;;
5981;SDS011;3018;48.730;9.336;2024-03-08T12:01:26;21.55;;;15.98;;
5981;SDS011;3018;48.730;9.336;2024-03-08T12:03:53;22.77;;;16.20;;
5981;SDS011;3018;48.730;9.336;2024-03-08T12:06:20;23.05;;;16.65;;
5981;SDS011;3018;48.730;9.336;2024-03-08T12:08:46;28.33;;;17.63;;
5981;SDS011;3018;48.730;9.336;2024-03-08T12:11:14;24.42;;;16.80;;
5981;SDS011;3018;48.730;9.336;2024-03-08T12:13:40;25.02;;;16.45;;
5981;SDS011;3018;48.730;9.336;2024-03-08T12:16:08;24.85;;;16.75;;
5981;SDS011;3018;48.730;9.336;2024-03-08T12:18:38;26.10;;;17.45;;
5981;SDS011;3018;48.730;9.336;2024-03-08T12:21:05;23.90;;;16.83;;
5981;SDS011;3018;48.730;9.336;2024-03-08T12:23:32;26.42;;;17.35;;
5981;SDS011;3018;48.730;9.336;2024-03-08T12:26:08;24.38;;;18.13;;
5981;SDS011;3018;48.730;9.336;2024-03-08T12:28:38;24.48;;;16.70;;
5981;SDS011;3018;48.730;9.336;2024-03-08T12:31:06;23.75;;;16.88;;
5981;SDS011;3018;48.730;9.336;2024-03-08T12:33:36;25.90;;;18.25;;
5981;SDS011;3018;48.730;9.336;2024-03-08T12:36:03;29.20;;;17.45;;
5981;SDS011;3018;48.730;9.336;2024-03-08T12:38:32;23.05;;;16.42;;
5981;SDS011;3018;48.730;9.336;2024-03-08T12:41:00;25.50;;;18.23;;
5981;SDS011;3018;48.730;9.336;2024-03-08T12:43:27;26.40;;;17.50;;
5981;SDS011;3018;48.730;9.336;2024-03-08T12:45:55;26.52;;;17.08;;
5981;SDS011;3018;48.730;9.336;2024-03-08T12:48:21;25.85;;;17.92;;
5981;SDS011;3018;48.730;9.336;2024-03-08T12:50:48;23.05;;;17.20;;
5981;SDS011;3018;48.730;9.336;2024-03-08T12:53:17;26.00;;;18.33;;
5981;SDS011;3018;48.730;9.336;2024-03-08T12:55:43;26.58;;;17.58;;
5981;SDS011;3018;48.730;9.336;2024-03-08T12:58:09;26.48;;;18.38;;
5981;SDS011;3018;48.730;9.336;2024-03-08T13:00:36;26.77;;;17.48;;
5981;SDS011;3018;48.730;9.336;2024-03-08T13:03:05;25.08;;;17.30;;
5981;SDS011;3018;48.730;9.336;2024-03-08T13:05:31;25.02;;;18.98;;
5981;SDS011;3018;48.730;9.336;2024-03-08T13:07:59;26.65;;;17.92;;
5981;SDS011;3018;48.730;9.336;2024-03-08T13:10:26;24.38;;;18.10;;
5981;SDS011;3018;48.730;9.336;2024-03-08T13:12:53;24.27;;;17.48;;
5981;SDS011;3018;48.730;9.336;2024-03-08T13:15:19;25.33;;;18.40;;
5981;SDS011;3018;48.730;9.336;2024-03-08T13:17:46;24.45;;;17.55;;
5981;SDS011;3018;48.730;9.336;2024-03-08T13:20:13;23.98;;;16.50;;
5981;SDS011;3018;48.730;9.336;2024-03-08T13:22:44;25.58;;;16.92;;
5981;SDS011;3018;48.730;9.336;2024-03-08T13:25:12;24.48;;;16.38;;
5981;SDS011;3018;48.730;9.336;2024-03-08T13:27:39;25.27;;;17.38;;
5981;SDS011;3018;48.730;9.336;2024-03-08T13:30:06;23.40;;;16.38;;
5981;SDS011;3018;48.730;9.336;2024-03-08T13:32:36;22.77;;;16.33;;
5981;SDS011;3018;48.730;9.336;2024-03-08T13:35:04;21.38;;;16.38;;
5981;SDS011;3018;48.730;9.336;2024-03-08T13:37:37;25.00;;;16.17;;
5981;SDS011;3018;48.730;9.336;2024-03-08T13:40:04;25.63;;;16.95;;
5981;SDS011;3018;48.730;9.336;2024-03-08T13:42:32;24.05;;;16.48;;
5981;SDS011;3018;48.730;9.336;2024-03-08T13:44:58;23.73;;;17.08;;
5981;SDS011;3018;48.730;9.336;2024-03-08T13:47:24;22.52;;;16.08;;
5981;SDS011;3018;48.730;9.336;2024-03-08T13:49:51;25.20;;;17.45;;
5981;SDS011;3018;48.730;9.336;2024-03-08T13:52:17;24.13;;;16.58;;
5981;SDS011;3018;48.730;9.336;2024-03-08T13:54:44;23.80;;;16.67;;
5981;SDS011;3018;48.730;9.336;2024-03-08T13:57:10;23.23;;;16.52;;
5981;SDS011;3018;48.730;9.336;2024-03-08T13:59:37;25.75;;;17.35;;
5981;SDS011;3018;48.730;9.336;2024-03-08T14:02:04;24.50;;;17.77;;
5981;SDS011;3018;48.730;9.336;2024-03-08T14:04:30;22.98;;;16.63;;
5981;SDS011;3018;48.730;9.336;2024-03-08T14:06:57;26.13;;;17.08;;
5981;SDS011;3018;48.730;9.336;2024-03-08T14:09:28;26.30;;;18.02;;
5981;SDS011;3018;48.730;9.336;2024-03-08T14:11:55;24.60;;;16.58;;
5981;SDS011;3018;48.730;9.336;2024-03-08T14:14:23;22.05;;;16.30;;
5981;SDS011;3018;48.730;9.336;2024-03-08T14:16:51;22.67;;;16.30;;
5981;SDS011;3018;48.730;9.336;2024-03-08T14:19:19;24.55;;;16.05;;
5981;SDS011;3018;48.730;9.336;2024-03-08T14:21:45;24.05;;;17.42;;
5981;SDS011;3018;48.730;9.336;2024-03-08T14:24:12;22.17;;;16.70;;
5981;SDS011;3018;48.730;9.336;2024-03-08T14:26:39;23.10;;;17.42;;
5981;SDS011;3018;48.730;9.336;2024-03-08T14:29:07;24.98;;;16.98;;
5981;SDS011;3018;48.730;9.336;2024-03-08T14:31:34;27.42;;;17.27;;
5981;SDS011;3018;48.730;9.336;2024-03-08T14:34:02;25.40;;;17.30;;
5981;SDS011;3018;48.730;9.336;2024-03-08T14:36:28;27.10;;;17.80;;
5981;SDS011;3018;48.730;9.336;2024-03-08T14:38:55;26.33;;;17.77;;
5981;SDS011;3018;48.730;9.336;2024-03-08T14:41:21;25.90;;;16.70;;
5981;SDS011;3018;48.730;9.336;2024-03-08T14:43:48;23.80;;;15.88;;
5981;SDS011;3018;48.730;9.336;2024-03-08T14:46:14;21.08;;;15.63;;
5981;SDS011;3018;48.730;9.336;2024-03-08T14:48:42;26.25;;;17.15;;